sensor_id;sensor_type;location;lat;lon;timestamp;P1;durP1;ratioP1;P2;durP2;ratioP2
22034;SDS011;11181;51.002;4.356;2022-11-15T00:00:45;17.93;;;10.77;;
22034;SDS011;11181;51.002;4.356;2022-11-15T00:03:13;16.37;;;11.43;;
22034;SDS011;11181;51.002;4.356;2022-11-15T00:05:41;14.20;;;10.27;;
22034;SDS011;11181;51.002;4.356;2022-11-15T00:08:08;13.97;;;10.77;;
22034;SDS011;11181;51.002;4.356;2022-11-15T00:10:35;15.37;;;10.60;;
22034;SDS011;11181;51.002;4.356;2022-11-15T00:13:04;18.40;;;11.20;;
22034;SDS011;11181;51.002;4.356;2022-11-15T00:15:31;18.20;;;11.87;;
22034;SDS011;11181;51.002;4.356;2022-11-15T00:18:01;16.27;;;10.67;;
22034;SDS011;11181;51.002;4.356;2022-11-15T00:20:28;14.63;;;10.50;;
22034;SDS011;11181;51.002;4.356;2022-11-15T00:22:55;17.10;;;11.50;;
22034;SDS011;11181;51.002;4.356;2022-11-15T00:25:22;19.73;;;10.70;;
22034;SDS011;11181;51.002;4.356;2022-11-15T00:27:49;18.83;;;11.60;;
22034;SDS011;11181;51.002;4.356;2022-11-15T00:30:17;17.50;;;11.67;;
22034;SDS011;11181;51.002;4.356;2022-11-15T00:32:44;18.00;;;11.93;;
22034;SDS011;11181;51.002;4.356;2022-11-15T00:35:12;15.40;;;10.60;;
22034;SDS011;11181;51.002;4.356;2022-11-15T00:37:39;20.83;;;11.87;;
22034;SDS011;11181;51.002;4.356;2022-11-15T00:40:06;16.47;;;11.53;;
22034;SDS011;11181;51.002;4.356;2022-11-15T00:42:34;18.27;;;11.43;;
22034;SDS011;11181;51.002;4.356;2022-11-15T00:45:01;18.17;;;12.23;;
22034;SDS011;11181;51.002;4.356;2022-11-15T00:47:28;16.63;;;11.93;;
22034;SDS011;11181;51.002;4.356;2022-11-15T00:49:55;20.57;;;12.67;;
22034;SDS011;11181;51.002;4.356;2022-11-15T00:52:24;15.90;;;11.07;;
22034;SDS011;11181;51.002;4.356;2022-11-15T00:54:50;16.87;;;11.57;;
22034;SDS011;11181;51.002;4.356;2022-11-15T00:57:17;21.33;;;11.63;;
22034;SDS011;11181;51.002;4.356;2022-11-15T00:59:44;16.70;;;10.27;;
22034;SDS011;11181;51.002;4.356;2022-11-15T01:02:11;20.67;;;11.33;;
22034;SDS011;11181;51.002;4.356;2022-11-15T01:04:38;17.40;;;11.87;;
22034;SDS011;11181;51.002;4.356;2022-11-15T01:07:05;18.27;;;11.97;;
22034;SDS011;11181;51.002;4.356;2022-11-15T01:09:33;15.33;;;11.40;;
22034;SDS011;11181;51.002;4.356;2022-11-15T01:12:00;15.57;;;11.23;;
22034;SDS011;11181;51.002;4.356;2022-11-15T01:14:27;19.23;;;11.80;;
22034;SDS011;11181;51.002;4.356;2022-11-15T01:16:54;14.40;;;10.90;;
22034;SDS011;11181;51.002;4.356;2022-11-15T01:19:21;20.43;;;12.27;;
22034;SDS011;11181;51.002;4.356;2022-11-15T01:21:48;15.47;;;10.77;;
22034;SDS011;11181;51.002;4.356;2022-11-15T01:24:15;18.70;;;11.47;;
22034;SDS011;11181;51.002;4.356;2022-11-15T01:26:44;17.30;;;11.20;;
22034;SDS011;11181;51.002;4.356;2022-11-15T01:29:11;15.30;;;11.50;;
22034;SDS011;11181;51.002;4.356;2022-11-15T01:31:37;19.27;;;11.63;;
22034;SDS011;11181;51.002;4.356;2022-11-15T01:34:04;16.90;;;11.40;;
22034;SDS011;11181;51.002;4.356;2022-11-15T01:36:31;15.60;;;10.57;;
22034;SDS011;11181;51.002;4.356;2022-11-15T01:38:58;20.17;;;13.33;;
22034;SDS011;11181;51.002;4.356;2022-11-15T01:41:26;16.10;;;11.37;;
22034;SDS011;11181;51.002;4.356;2022-11-15T01:43:57;17.67;;;11.53;;
22034;SDS011;11181;51.002;4.356;2022-11-15T01:46:44;17.73;;;11.20;;
22034;SDS011;11181;51.002;4.356;2022-11-15T01:49:14;17.73;;;10.53;;
22034;SDS011;11181;51.002;4.356;2022-11-15T01:51:44;17.67;;;11.60;;
22034;SDS011;11181;51.002;4.356;2022-11-15T01:54:12;18.47;;;12.47;;
22034;SDS011;11181;51.002;4.356;2022-11-15T01:56:43;17.00;;;10.90;;
22034;SDS011;11181;51.002;4.356;2022-11-15T01:59:15;13.73;;;10.10;;
22034;SDS011;11181;51.002;4.356;2022-11-15T02:01:42;19.37;;;10.90;;
22034;SDS011;11181;51.002;4.356;2022-11-15T02:04:10;22.90;;;11.67;;
22034;SDS011;11181;51.002;4.356;2022-11-15T02:06:39;14.70;;;10.30;;
22034;SDS011;11181;51.002;4.356;2022-11-15T02:09:07;17.30;;;11.20;;
22034;SDS011;11181;51.002;4.356;2022-11-15T02:11:34;17.73;;;10.43;;
22034;SDS011;11181;51.002;4.356;2022-11-15T02:14:01;14.73;;;9.67;;
22034;SDS011;11181;51.002;4.356;2022-11-15T02:16:31;16.20;;;9.57;;
22034;SDS011;11181;51.002;4.356;2022-11-15T02:19:09;13.00;;;9.87;;
22034;SDS011;11181;51.002;4.356;2022-11-15T02:21:48;14.93;;;9.63;;
22034;SDS011;11181;51.002;4.356;2022-11-15T02:24:32;20.63;;;11.07;;
22034;SDS011;11181;51.002;4.356;2022-11-15T02:30:28;13.80;;;8.70;;
22034;SDS011;11181;51.002;4.356;2022-11-15T02:33:02;11.77;;;9.20;;
22034;SDS011;11181;51.002;4.356;2022-11-15T02:35:37;13.73;;;8.67;;
22034;SDS011;11181;51.002;4.356;2022-11-15T02:38:12;13.27;;;9.73;;
22034;SDS011;11181;51.002;4.356;2022-11-15T02:40:45;14.20;;;8.93;;
22034;SDS011;11181;51.002;4.356;2022-11-15T02:43:19;14.50;;;9.97;;
22034;SDS011;11181;51.002;4.356;2022-11-15T02:46:10;12.93;;;9.10;;
22034;SDS011;11181;51.002;4.356;2022-11-15T02:48:42;13.10;;;8.53;;
22034;SDS011;11181;51.002;4.356;2022-11-15T02:51:11;11.57;;;9.30;;
22034;SDS011;11181;51.002;4.356;2022-11-15T02:53:39;14.67;;;9.00;;
22034;SDS011;11181;51.002;4.356;2022-11-15T02:56:07;12.43;;;8.27;;
22034;SDS011;11181;51.002;4.356;2022-11-15T03:01:41;13.43;;;8.40;;
22034;SDS011;11181;51.002;4.356;2022-11-15T03:04:19;13.60;;;8.63;;
22034;SDS011;11181;51.002;4.356;2022-11-15T03:06:55;14.10;;;9.43;;
22034;SDS011;11181;51.002;4.356;2022-11-15T03:09:30;13.37;;;8.20;;
22034;SDS011;11181;51.002;4.356;2022-11-15T03:12:03;14.60;;;9.03;;
22034;SDS011;11181;51.002;4.356;2022-11-15T03:14:37;10.60;;;7.37;;
22034;SDS011;11181;51.002;4.356;2022-11-15T03:17:17;13.03;;;7.97;;
22034;SDS011;11181;51.002;4.356;2022-11-15T03:19:49;12.17;;;8.37;;
22034;SDS011;11181;51.002;4.356;2022-11-15T03:22:19;10.77;;;7.50;;
22034;SDS011;11181;51.002;4.356;2022-11-15T03:24:50;17.27;;;8.23;;
22034;SDS011;11181;51.002;4.356;2022-11-15T03:27:22;9.97;;;7.63;;
22034;SDS011;11181;51.002;4.356;2022-11-15T03:29:54;9.87;;;7.73;;
22034;SDS011;11181;51.002;4.356;2022-11-15T03:32:26;10.43;;;6.37;;
22034;SDS011;11181;51.002;4.356;2022-11-15T03:34:56;8.57;;;5.87;;
22034;SDS011;11181;51.002;4.356;2022-11-15T03:37:29;10.13;;;6.63;;
22034;SDS011;11181;51.002;4.356;2022-11-15T03:40:00;10.97;;;7.17;;
22034;SDS011;11181;51.002;4.356;2022-11-15T03:42:28;9.03;;;5.80;;
22034;SDS011;11181;51.002;4.356;2022-11-15T03:45:00;8.37;;;6.90;;
22034;SDS011;11181;51.002;4.356;2022-11-15T03:47:34;11.90;;;5.00;;
22034;SDS011;11181;51.002;4.356;2022-11-15T03:50:07;10.30;;;5.73;;
22034;SDS011;11181;51.002;4.356;2022-11-15T03:52:36;10.10;;;5.40;;
22034;SDS011;11181;51.002;4.356;2022-11-15T03:55:07;11.10;;;5.37;;
22034;SDS011;11181;51.002;4.356;2022-11-15T03:57:36;9.10;;;5.60;;
22034;SDS011;11181;51.002;4.356;2022-11-15T04:00:03;9.90;;;5.77;;
22034;SDS011;11181;51.002;4.356;2022-11-15T04:02:31;12.60;;;5.00;;
22034;SDS011;11181;51.002;4.356;2022-11-15T04:04:59;5.53;;;4.80;;
22034;SDS011;11181;51.002;4.356;2022-11-15T04:07:26;8.43;;;5.30;;
22034;SDS011;11181;51.002;4.356;2022-11-15T04:09:53;6.83;;;4.63;;
22034;SDS011;11181;51.002;4.356;2022-11-15T04:12:29;9.87;;;5.00;;
22034;SDS011;11181;51.002;4.356;2022-11-15T04:14:59;11.43;;;5.33;;
22034;SDS011;11181;51.002;4.356;2022-11-15T04:17:37;10.60;;;5.43;;
22034;SDS011;11181;51.002;4.356;2022-11-15T04:20:07;7.93;;;5.40;;
22034;SDS011;11181;51.002;4.356;2022-11-15T04:22:53;7.23;;;4.70;;
22034;SDS011;11181;51.002;4.356;2022-11-15T04:25:38;9.90;;;5.03;;
22034;SDS011;11181;51.002;4.356;2022-11-15T04:28:05;6.07;;;4.67;;
22034;SDS011;11181;51.002;4.356;2022-11-15T04:30:32;8.20;;;5.97;;
22034;SDS011;11181;51.002;4.356;2022-11-15T04:32:59;8.27;;;4.73;;
22034;SDS011;11181;51.002;4.356;2022-11-15T04:35:28;8.93;;;4.67;;
22034;SDS011;11181;51.002;4.356;2022-11-15T04:37:55;6.30;;;5.13;;
22034;SDS011;11181;51.002;4.356;2022-11-15T04:40:23;8.97;;;4.60;;
22034;SDS011;11181;51.002;4.356;2022-11-15T04:42:50;6.80;;;4.27;;
22034;SDS011;11181;51.002;4.356;2022-11-15T04:45:16;6.37;;;4.10;;
22034;SDS011;11181;51.002;4.356;2022-11-15T04:47:44;9.80;;;4.80;;
22034;SDS011;11181;51.002;4.356;2022-11-15T04:50:11;9.63;;;4.93;;
22034;SDS011;11181;51.002;4.356;2022-11-15T04:52:40;9.47;;;4.87;;
22034;SDS011;11181;51.002;4.356;2022-11-15T04:55:08;7.73;;;4.53;;
22034;SDS011;11181;51.002;4.356;2022-11-15T04:57:35;6.70;;;4.87;;
22034;SDS011;11181;51.002;4.356;2022-11-15T05:00:03;11.30;;;4.97;;
22034;SDS011;11181;51.002;4.356;2022-11-15T05:02:30;5.87;;;4.43;;
22034;SDS011;11181;51.002;4.356;2022-11-15T05:05:11;6.93;;;4.33;;
22034;SDS011;11181;51.002;4.356;2022-11-15T05:07:38;10.70;;;5.50;;
22034;SDS011;11181;51.002;4.356;2022-11-15T05:10:07;6.07;;;4.23;;
22034;SDS011;11181;51.002;4.356;2022-11-15T05:12:34;8.50;;;3.70;;
22034;SDS011;11181;51.002;4.356;2022-11-15T05:15:01;7.73;;;4.87;;
22034;SDS011;11181;51.002;4.356;2022-11-15T05:17:28;4.43;;;3.67;;
22034;SDS011;11181;51.002;4.356;2022-11-15T05:19:55;7.23;;;4.37;;
22034;SDS011;11181;51.002;4.356;2022-11-15T05:22:22;7.27;;;4.50;;
22034;SDS011;11181;51.002;4.356;2022-11-15T05:24:49;6.60;;;4.07;;
22034;SDS011;11181;51.002;4.356;2022-11-15T05:27:17;7.17;;;4.13;;
22034;SDS011;11181;51.002;4.356;2022-11-15T05:29:44;6.13;;;3.10;;
22034;SDS011;11181;51.002;4.356;2022-11-15T05:32:13;5.00;;;3.47;;
22034;SDS011;11181;51.002;4.356;2022-11-15T05:34:42;5.50;;;3.53;;
22034;SDS011;11181;51.002;4.356;2022-11-15T05:37:09;6.80;;;4.23;;
22034;SDS011;11181;51.002;4.356;2022-11-15T05:39:36;6.97;;;3.33;;
22034;SDS011;11181;51.002;4.356;2022-11-15T05:42:05;6.67;;;3.13;;
22034;SDS011;11181;51.002;4.356;2022-11-15T05:44:35;8.90;;;3.40;;
22034;SDS011;11181;51.002;4.356;2022-11-15T05:47:03;7.33;;;3.23;;
22034;SDS011;11181;51.002;4.356;2022-11-15T05:49:34;9.87;;;4.03;;
22034;SDS011;11181;51.002;4.356;2022-11-15T05:52:05;7.90;;;4.13;;
22034;SDS011;11181;51.002;4.356;2022-11-15T05:54:35;7.40;;;3.23;;
22034;SDS011;11181;51.002;4.356;2022-11-15T05:57:03;4.47;;;2.93;;
22034;SDS011;11181;51.002;4.356;2022-11-15T05:59:30;5.53;;;2.77;;
22034;SDS011;11181;51.002;4.356;2022-11-15T06:02:00;6.27;;;3.40;;
22034;SDS011;11181;51.002;4.356;2022-11-15T06:04:27;6.80;;;3.57;;
22034;SDS011;11181;51.002;4.356;2022-11-15T06:06:54;7.93;;;3.50;;
22034;SDS011;11181;51.002;4.356;2022-11-15T06:09:21;5.37;;;2.90;;
22034;SDS011;11181;51.002;4.356;2022-11-15T06:11:48;7.87;;;3.43;;
22034;SDS011;11181;51.002;4.356;2022-11-15T06:14:15;8.13;;;3.77;;
22034;SDS011;11181;51.002;4.356;2022-11-15T06:16:42;4.33;;;2.87;;
22034;SDS011;11181;51.002;4.356;2022-11-15T06:19:10;7.80;;;4.03;;
22034;SDS011;11181;51.002;4.356;2022-11-15T06:21:37;8.00;;;3.40;;
22034;SDS011;11181;51.002;4.356;2022-11-15T06:24:05;13.27;;;5.00;;
22034;SDS011;11181;51.002;4.356;2022-11-15T06:26:32;9.90;;;4.83;;
22034;SDS011;11181;51.002;4.356;2022-11-15T06:28:59;12.43;;;3.50;;
22034;SDS011;11181;51.002;4.356;2022-11-15T06:31:26;5.87;;;3.60;;
22034;SDS011;11181;51.002;4.356;2022-11-15T06:33:53;6.63;;;3.20;;
22034;SDS011;11181;51.002;4.356;2022-11-15T06:36:21;4.03;;;2.50;;
22034;SDS011;11181;51.002;4.356;2022-11-15T06:38:48;5.73;;;2.77;;
22034;SDS011;11181;51.002;4.356;2022-11-15T06:41:15;5.37;;;2.93;;
22034;SDS011;11181;51.002;4.356;2022-11-15T06:43:42;4.63;;;3.27;;
22034;SDS011;11181;51.002;4.356;2022-11-15T06:46:09;5.23;;;3.00;;
22034;SDS011;11181;51.002;4.356;2022-11-15T06:48:36;3.73;;;2.80;;
22034;SDS011;11181;51.002;4.356;2022-11-15T06:51:03;9.37;;;3.13;;
22034;SDS011;11181;51.002;4.356;2022-11-15T06:53:33;5.20;;;2.90;;
22034;SDS011;11181;51.002;4.356;2022-11-15T06:56:01;5.93;;;2.70;;
22034;SDS011;11181;51.002;4.356;2022-11-15T06:58:29;3.70;;;2.70;;
22034;SDS011;11181;51.002;4.356;2022-11-15T07:01:00;5.17;;;2.73;;
22034;SDS011;11181;51.002;4.356;2022-11-15T07:03:27;6.47;;;2.93;;
22034;SDS011;11181;51.002;4.356;2022-11-15T07:05:55;5.60;;;3.30;;
22034;SDS011;11181;51.002;4.356;2022-11-15T07:08:23;6.57;;;3.67;;
22034;SDS011;11181;51.002;4.356;2022-11-15T07:10:54;2.63;;;2.43;;
22034;SDS011;11181;51.002;4.356;2022-11-15T07:13:24;7.87;;;2.63;;
22034;SDS011;11181;51.002;4.356;2022-11-15T07:15:51;6.63;;;3.47;;
22034;SDS011;11181;51.002;4.356;2022-11-15T07:18:19;5.67;;;3.73;;
22034;SDS011;11181;51.002;4.356;2022-11-15T07:20:46;10.70;;;3.53;;
22034;SDS011;11181;51.002;4.356;2022-11-15T07:23:13;5.90;;;3.43;;
22034;SDS011;11181;51.002;4.356;2022-11-15T07:25:40;4.13;;;3.13;;
22034;SDS011;11181;51.002;4.356;2022-11-15T07:28:08;7.50;;;3.40;;
22034;SDS011;11181;51.002;4.356;2022-11-15T07:30:35;5.37;;;2.97;;
22034;SDS011;11181;51.002;4.356;2022-11-15T07:33:02;9.63;;;3.20;;
22034;SDS011;11181;51.002;4.356;2022-11-15T07:35:29;9.60;;;3.67;;
22034;SDS011;11181;51.002;4.356;2022-11-15T07:37:56;14.27;;;3.87;;
22034;SDS011;11181;51.002;4.356;2022-11-15T07:40:24;5.80;;;2.83;;
22034;SDS011;11181;51.002;4.356;2022-11-15T07:42:52;6.67;;;3.10;;
22034;SDS011;11181;51.002;4.356;2022-11-15T07:45:25;6.17;;;3.37;;
22034;SDS011;11181;51.002;4.356;2022-11-15T07:47:52;5.23;;;3.03;;
22034;SDS011;11181;51.002;4.356;2022-11-15T07:50:21;6.43;;;3.90;;
22034;SDS011;11181;51.002;4.356;2022-11-15T07:52:52;5.37;;;2.70;;
22034;SDS011;11181;51.002;4.356;2022-11-15T07:55:20;6.87;;;3.30;;
22034;SDS011;11181;51.002;4.356;2022-11-15T07:57:47;3.60;;;2.50;;
22034;SDS011;11181;51.002;4.356;2022-11-15T08:00:15;8.00;;;2.43;;
22034;SDS011;11181;51.002;4.356;2022-11-15T08:02:44;3.23;;;2.07;;
22034;SDS011;11181;51.002;4.356;2022-11-15T08:05:11;6.33;;;3.20;;
22034;SDS011;11181;51.002;4.356;2022-11-15T08:07:38;4.17;;;1.80;;
22034;SDS011;11181;51.002;4.356;2022-11-15T08:10:05;3.67;;;2.07;;
22034;SDS011;11181;51.002;4.356;2022-11-15T08:12:33;8.43;;;2.70;;
22034;SDS011;11181;51.002;4.356;2022-11-15T08:15:00;2.97;;;1.90;;
22034;SDS011;11181;51.002;4.356;2022-11-15T08:17:27;4.87;;;2.63;;
22034;SDS011;11181;51.002;4.356;2022-11-15T08:19:59;4.87;;;2.37;;
22034;SDS011;11181;51.002;4.356;2022-11-15T08:22:25;5.90;;;2.53;;
22034;SDS011;11181;51.002;4.356;2022-11-15T08:24:52;5.57;;;2.17;;
22034;SDS011;11181;51.002;4.356;2022-11-15T08:27:19;6.37;;;2.20;;
22034;SDS011;11181;51.002;4.356;2022-11-15T08:29:48;5.47;;;2.67;;
22034;SDS011;11181;51.002;4.356;2022-11-15T08:32:16;4.03;;;2.80;;
22034;SDS011;11181;51.002;4.356;2022-11-15T08:34:43;4.70;;;1.93;;
22034;SDS011;11181;51.002;4.356;2022-11-15T08:37:11;3.60;;;1.80;;
22034;SDS011;11181;51.002;4.356;2022-11-15T08:39:38;4.20;;;1.87;;
22034;SDS011;11181;51.002;4.356;2022-11-15T08:42:04;3.07;;;2.17;;
22034;SDS011;11181;51.002;4.356;2022-11-15T08:44:31;6.70;;;2.40;;
22034;SDS011;11181;51.002;4.356;2022-11-15T08:46:58;3.77;;;1.67;;
22034;SDS011;11181;51.002;4.356;2022-11-15T08:49:25;4.93;;;1.70;;
22034;SDS011;11181;51.002;4.356;2022-11-15T08:51:52;6.23;;;1.90;;
22034;SDS011;11181;51.002;4.356;2022-11-15T08:54:20;5.93;;;2.13;;
22034;SDS011;11181;51.002;4.356;2022-11-15T08:56:47;8.03;;;1.60;;
22034;SDS011;11181;51.002;4.356;2022-11-15T08:59:14;2.57;;;1.40;;
22034;SDS011;11181;51.002;4.356;2022-11-15T09:01:41;6.13;;;1.77;;
22034;SDS011;11181;51.002;4.356;2022-11-15T09:04:08;5.40;;;2.00;;
22034;SDS011;11181;51.002;4.356;2022-11-15T09:06:34;3.53;;;1.67;;
22034;SDS011;11181;51.002;4.356;2022-11-15T09:09:02;5.90;;;1.60;;
22034;SDS011;11181;51.002;4.356;2022-11-15T09:11:30;3.97;;;1.40;;
22034;SDS011;11181;51.002;4.356;2022-11-15T09:13:57;2.23;;;1.40;;
22034;SDS011;11181;51.002;4.356;2022-11-15T09:16:24;7.47;;;1.80;;
22034;SDS011;11181;51.002;4.356;2022-11-15T09:18:52;4.13;;;1.40;;
22034;SDS011;11181;51.002;4.356;2022-11-15T09:21:19;4.83;;;1.60;;
22034;SDS011;11181;51.002;4.356;2022-11-15T09:23:46;2.37;;;1.50;;
22034;SDS011;11181;51.002;4.356;2022-11-15T09:26:13;3.80;;;1.50;;
22034;SDS011;11181;51.002;4.356;2022-11-15T09:28:41;5.67;;;1.40;;
22034;SDS011;11181;51.002;4.356;2022-11-15T09:31:08;3.10;;;1.27;;
22034;SDS011;11181;51.002;4.356;2022-11-15T09:33:35;5.87;;;1.40;;
22034;SDS011;11181;51.002;4.356;2022-11-15T09:36:03;4.50;;;1.50;;
22034;SDS011;11181;51.002;4.356;2022-11-15T09:38:35;3.63;;;1.13;;
22034;SDS011;11181;51.002;4.356;2022-11-15T09:44:09;4.67;;;1.37;;
22034;SDS011;11181;51.002;4.356;2022-11-15T09:47:02;4.53;;;1.33;;
22034;SDS011;11181;51.002;4.356;2022-11-15T09:49:43;5.90;;;1.00;;
22034;SDS011;11181;51.002;4.356;2022-11-15T09:52:10;3.83;;;1.00;;
22034;SDS011;11181;51.002;4.356;2022-11-15T09:54:38;4.67;;;1.20;;
22034;SDS011;11181;51.002;4.356;2022-11-15T09:57:10;3.57;;;1.30;;
22034;SDS011;11181;51.002;4.356;2022-11-15T09:59:44;4.93;;;1.33;;
22034;SDS011;11181;51.002;4.356;2022-11-15T10:02:22;3.57;;;1.17;;
22034;SDS011;11181;51.002;4.356;2022-11-15T10:05:00;5.73;;;1.40;;
22034;SDS011;11181;51.002;4.356;2022-11-15T10:07:28;5.97;;;1.53;;
22034;SDS011;11181;51.002;4.356;2022-11-15T10:10:08;14.10;;;1.70;;
22034;SDS011;11181;51.002;4.356;2022-11-15T10:12:40;4.87;;;1.13;;
22034;SDS011;11181;51.002;4.356;2022-11-15T10:15:14;3.90;;;1.53;;
22034;SDS011;11181;51.002;4.356;2022-11-15T10:18:05;3.67;;;1.17;;
22034;SDS011;11181;51.002;4.356;2022-11-15T10:20:44;6.80;;;1.60;;
22034;SDS011;11181;51.002;4.356;2022-11-15T10:23:15;8.53;;;1.97;;
22034;SDS011;11181;51.002;4.356;2022-11-15T10:25:44;5.83;;;1.10;;
22034;SDS011;11181;51.002;4.356;2022-11-15T10:28:13;3.10;;;1.20;;
22034;SDS011;11181;51.002;4.356;2022-11-15T10:30:44;3.80;;;1.23;;
22034;SDS011;11181;51.002;4.356;2022-11-15T10:33:22;3.80;;;1.37;;
22034;SDS011;11181;51.002;4.356;2022-11-15T10:38:57;7.80;;;1.60;;
22034;SDS011;11181;51.002;4.356;2022-11-15T10:41:32;3.30;;;0.90;;
22034;SDS011;11181;51.002;4.356;2022-11-15T10:47:05;9.87;;;2.40;;
22034;SDS011;11181;51.002;4.356;2022-11-15T10:49:52;7.90;;;2.17;;
22034;SDS011;11181;51.002;4.356;2022-11-15T10:52:31;4.60;;;1.00;;
22034;SDS011;11181;51.002;4.356;2022-11-15T10:55:02;4.33;;;1.33;;
22034;SDS011;11181;51.002;4.356;2022-11-15T10:57:33;5.03;;;1.00;;
22034;SDS011;11181;51.002;4.356;2022-11-15T11:00:04;3.13;;;1.40;;
22034;SDS011;11181;51.002;4.356;2022-11-15T11:02:35;3.70;;;1.60;;
22034;SDS011;11181;51.002;4.356;2022-11-15T11:05:05;3.10;;;1.03;;
22034;SDS011;11181;51.002;4.356;2022-11-15T11:07:33;8.57;;;1.37;;
22034;SDS011;11181;51.002;4.356;2022-11-15T11:10:03;6.37;;;1.53;;
22034;SDS011;11181;51.002;4.356;2022-11-15T11:12:33;3.87;;;1.10;;
22034;SDS011;11181;51.002;4.356;2022-11-15T11:15:02;2.47;;;1.10;;
22034;SDS011;11181;51.002;4.356;2022-11-15T11:17:44;4.53;;;1.10;;
22034;SDS011;11181;51.002;4.356;2022-11-15T11:20:25;6.37;;;1.10;;
22034;SDS011;11181;51.002;4.356;2022-11-15T11:23:00;4.77;;;1.23;;
22034;SDS011;11181;51.002;4.356;2022-11-15T11:25:40;3.57;;;0.80;;
22034;SDS011;11181;51.002;4.356;2022-11-15T11:28:17;11.60;;;1.13;;
22034;SDS011;11181;51.002;4.356;2022-11-15T11:30:55;3.00;;;0.87;;
22034;SDS011;11181;51.002;4.356;2022-11-15T11:33:31;3.37;;;1.10;;
22034;SDS011;11181;51.002;4.356;2022-11-15T11:36:04;4.63;;;1.20;;
22034;SDS011;11181;51.002;4.356;2022-11-15T11:38:44;4.87;;;1.20;;
22034;SDS011;11181;51.002;4.356;2022-11-15T11:41:38;5.60;;;1.03;;
22034;SDS011;11181;51.002;4.356;2022-11-15T11:44:18;4.43;;;1.57;;
22034;SDS011;11181;51.002;4.356;2022-11-15T11:46:55;3.80;;;1.00;;
22034;SDS011;11181;51.002;4.356;2022-11-15T11:49:29;5.03;;;0.93;;
22034;SDS011;11181;51.002;4.356;2022-11-15T11:52:02;5.07;;;0.90;;
22034;SDS011;11181;51.002;4.356;2022-11-15T11:54:37;3.30;;;1.27;;
22034;SDS011;11181;51.002;4.356;2022-11-15T11:57:10;5.30;;;1.07;;
22034;SDS011;11181;51.002;4.356;2022-11-15T11:59:43;3.43;;;0.80;;
22034;SDS011;11181;51.002;4.356;2022-11-15T12:02:17;2.57;;;1.10;;
22034;SDS011;11181;51.002;4.356;2022-11-15T12:04:53;3.03;;;0.93;;
22034;SDS011;11181;51.002;4.356;2022-11-15T12:07:27;4.53;;;0.93;;
22034;SDS011;11181;51.002;4.356;2022-11-15T12:09:58;3.20;;;1.00;;
22034;SDS011;11181;51.002;4.356;2022-11-15T12:12:30;3.83;;;1.00;;
22034;SDS011;11181;51.002;4.356;2022-11-15T12:15:02;5.13;;;1.30;;
22034;SDS011;11181;51.002;4.356;2022-11-15T12:17:37;5.23;;;1.30;;
22034;SDS011;11181;51.002;4.356;2022-11-15T12:20:14;2.17;;;1.10;;
22034;SDS011;11181;51.002;4.356;2022-11-15T12:22:44;4.23;;;1.43;;
22034;SDS011;11181;51.002;4.356;2022-11-15T12:25:20;6.40;;;1.20;;
22034;SDS011;11181;51.002;4.356;2022-11-15T12:27:50;1.73;;;0.90;;
22034;SDS011;11181;51.002;4.356;2022-11-15T12:30:21;3.93;;;1.00;;
22034;SDS011;11181;51.002;4.356;2022-11-15T12:32:50;4.17;;;1.10;;
22034;SDS011;11181;51.002;4.356;2022-11-15T12:35:32;1.90;;;0.73;;
22034;SDS011;11181;51.002;4.356;2022-11-15T12:38:03;1.70;;;1.10;;
22034;SDS011;11181;51.002;4.356;2022-11-15T12:40:32;7.57;;;1.40;;
22034;SDS011;11181;51.002;4.356;2022-11-15T12:46:01;6.33;;;1.10;;
22034;SDS011;11181;51.002;4.356;2022-11-15T13:06:04;4.90;;;1.97;;
22034;SDS011;11181;51.002;4.356;2022-11-15T13:08:43;3.43;;;0.70;;
22034;SDS011;11181;51.002;4.356;2022-11-15T13:20:01;7.10;;;1.30;;
22034;SDS011;11181;51.002;4.356;2022-11-15T13:22:42;3.20;;;1.53;;
22034;SDS011;11181;51.002;4.356;2022-11-15T13:25:26;4.50;;;1.17;;
22034;SDS011;11181;51.002;4.356;2022-11-15T13:28:10;1.83;;;1.40;;
22034;SDS011;11181;51.002;4.356;2022-11-15T13:30:50;3.77;;;1.30;;
22034;SDS011;11181;51.002;4.356;2022-11-15T13:33:19;4.90;;;2.07;;
22034;SDS011;11181;51.002;4.356;2022-11-15T13:35:48;3.87;;;2.27;;
22034;SDS011;11181;51.002;4.356;2022-11-15T13:38:18;1.70;;;0.80;;
22034;SDS011;11181;51.002;4.356;2022-11-15T13:40:51;7.73;;;2.60;;
22034;SDS011;11181;51.002;4.356;2022-11-15T13:43:23;1.50;;;1.00;;
22034;SDS011;11181;51.002;4.356;2022-11-15T13:46:10;3.77;;;0.90;;
22034;SDS011;11181;51.002;4.356;2022-11-15T13:48:39;2.97;;;1.20;;
22034;SDS011;11181;51.002;4.356;2022-11-15T13:51:08;4.53;;;1.10;;
22034;SDS011;11181;51.002;4.356;2022-11-15T13:53:42;3.97;;;1.70;;
22034;SDS011;11181;51.002;4.356;2022-11-15T13:56:13;4.80;;;1.53;;
22034;SDS011;11181;51.002;4.356;2022-11-15T13:58:41;3.03;;;1.23;;
22034;SDS011;11181;51.002;4.356;2022-11-15T14:01:13;7.13;;;1.47;;
22034;SDS011;11181;51.002;4.356;2022-11-15T14:03:46;3.73;;;1.43;;
22034;SDS011;11181;51.002;4.356;2022-11-15T14:06:18;7.87;;;1.23;;
22034;SDS011;11181;51.002;4.356;2022-11-15T14:08:58;4.83;;;2.23;;
22034;SDS011;11181;51.002;4.356;2022-11-15T14:11:27;3.33;;;1.57;;
22034;SDS011;11181;51.002;4.356;2022-11-15T14:14:08;2.80;;;1.10;;
22034;SDS011;11181;51.002;4.356;2022-11-15T14:16:42;4.23;;;2.70;;
22034;SDS011;11181;51.002;4.356;2022-11-15T14:19:11;2.47;;;1.33;;
22034;SDS011;11181;51.002;4.356;2022-11-15T14:24:34;3.03;;;1.20;;
22034;SDS011;11181;51.002;4.356;2022-11-15T14:27:15;4.10;;;1.20;;
22034;SDS011;11181;51.002;4.356;2022-11-15T14:29:49;2.17;;;1.10;;
22034;SDS011;11181;51.002;4.356;2022-11-15T14:32:18;2.50;;;1.10;;
22034;SDS011;11181;51.002;4.356;2022-11-15T14:34:47;2.43;;;1.23;;
22034;SDS011;11181;51.002;4.356;2022-11-15T14:37:21;5.27;;;1.57;;
22034;SDS011;11181;51.002;4.356;2022-11-15T14:39:50;2.10;;;1.00;;
22034;SDS011;11181;51.002;4.356;2022-11-15T14:42:18;2.47;;;1.00;;
22034;SDS011;11181;51.002;4.356;2022-11-15T14:44:46;3.00;;;1.50;;
22034;SDS011;11181;51.002;4.356;2022-11-15T14:47:13;4.30;;;1.30;;
22034;SDS011;11181;51.002;4.356;2022-11-15T14:49:41;2.63;;;1.10;;
22034;SDS011;11181;51.002;4.356;2022-11-15T14:52:25;3.53;;;1.03;;
22034;SDS011;11181;51.002;4.356;2022-11-15T14:54:54;1.20;;;1.00;;
22034;SDS011;11181;51.002;4.356;2022-11-15T14:57:21;4.90;;;1.43;;
22034;SDS011;11181;51.002;4.356;2022-11-15T14:59:48;4.30;;;1.10;;
22034;SDS011;11181;51.002;4.356;2022-11-15T15:02:17;3.17;;;0.97;;
22034;SDS011;11181;51.002;4.356;2022-11-15T15:04:47;6.47;;;1.40;;
22034;SDS011;11181;51.002;4.356;2022-11-15T15:07:14;2.87;;;1.40;;
22034;SDS011;11181;51.002;4.356;2022-11-15T15:09:41;3.60;;;1.43;;
22034;SDS011;11181;51.002;4.356;2022-11-15T15:12:12;1.80;;;1.43;;
22034;SDS011;11181;51.002;4.356;2022-11-15T15:14:42;3.43;;;1.60;;
22034;SDS011;11181;51.002;4.356;2022-11-15T15:17:10;4.27;;;1.30;;
22034;SDS011;11181;51.002;4.356;2022-11-15T15:19:37;2.20;;;1.13;;
22034;SDS011;11181;51.002;4.356;2022-11-15T15:22:05;2.30;;;1.60;;
22034;SDS011;11181;51.002;4.356;2022-11-15T15:24:32;2.67;;;1.73;;
22034;SDS011;11181;51.002;4.356;2022-11-15T15:26:59;3.07;;;1.63;;
22034;SDS011;11181;51.002;4.356;2022-11-15T15:29:26;2.00;;;1.20;;
22034;SDS011;11181;51.002;4.356;2022-11-15T15:31:53;3.50;;;1.80;;
22034;SDS011;11181;51.002;4.356;2022-11-15T15:34:19;3.80;;;1.37;;
22034;SDS011;11181;51.002;4.356;2022-11-15T15:36:46;2.43;;;1.70;;
22034;SDS011;11181;51.002;4.356;2022-11-15T15:39:15;2.63;;;1.50;;
22034;SDS011;11181;51.002;4.356;2022-11-15T15:41:41;1.73;;;1.47;;
22034;SDS011;11181;51.002;4.356;2022-11-15T15:44:08;1.57;;;1.47;;
22034;SDS011;11181;51.002;4.356;2022-11-15T15:46:35;4.83;;;1.57;;
22034;SDS011;11181;51.002;4.356;2022-11-15T15:49:02;3.00;;;1.33;;